sensor_id;sensor_type;location;lat;lon;timestamp;P1;durP1;ratioP1;P2;durP2;ratioP2
42260;SDS011;27926;48.062;7.474;2023-02-08T00:01:50;30.07;;;13.53;;
42260;SDS011;27926;48.062;7.474;2023-02-08T00:04:14;28.80;;;12.50;;
42260;SDS011;27926;48.062;7.474;2023-02-08T00:06:39;32.17;;;13.77;;
42260;SDS011;27926;48.062;7.474;2023-02-08T00:09:04;37.80;;;14.18;;
42260;SDS011;27926;48.062;7.474;2023-02-08T00:11:30;34.67;;;15.15;;
42260;SDS011;27926;48.062;7.474;2023-02-08T00:13:54;30.00;;;13.57;;
42260;SDS011;27926;48.062;7.474;2023-02-08T00:16:19;30.50;;;13.90;;
42260;SDS011;27926;48.062;7.474;2023-02-08T00:18:43;29.20;;;13.63;;
42260;SDS011;27926;48.062;7.474;2023-02-08T00:21:14;46.30;;;15.30;;
42260;SDS011;27926;48.062;7.474;2023-02-08T00:23:40;27.73;;;12.23;;
42260;SDS011;27926;48.062;7.474;2023-02-08T00:26:05;31.90;;;14.32;;
42260;SDS011;27926;48.062;7.474;2023-02-08T00:28:30;33.80;;;14.02;;
42260;SDS011;27926;48.062;7.474;2023-02-08T00:30:55;32.87;;;14.93;;
42260;SDS011;27926;48.062;7.474;2023-02-08T00:33:19;34.30;;;14.37;;
42260;SDS011;27926;48.062;7.474;2023-02-08T00:35:44;29.03;;;13.00;;
42260;SDS011;27926;48.062;7.474;2023-02-08T00:38:09;34.43;;;12.93;;
42260;SDS011;27926;48.062;7.474;2023-02-08T00:40:33;36.40;;;13.63;;
42260;SDS011;27926;48.062;7.474;2023-02-08T00:42:58;34.93;;;13.80;;
42260;SDS011;27926;48.062;7.474;2023-02-08T00:45:23;39.03;;;12.90;;
42260;SDS011;27926;48.062;7.474;2023-02-08T00:47:47;32.27;;;13.83;;
42260;SDS011;27926;48.062;7.474;2023-02-08T00:50:12;29.77;;;13.83;;
42260;SDS011;27926;48.062;7.474;2023-02-08T00:52:37;29.90;;;13.60;;
42260;SDS011;27926;48.062;7.474;2023-02-08T00:55:02;39.77;;;12.83;;
42260;SDS011;27926;48.062;7.474;2023-02-08T00:59:52;24.15;;;12.02;;
42260;SDS011;27926;48.062;7.474;2023-02-08T01:02:16;27.63;;;12.93;;
42260;SDS011;27926;48.062;7.474;2023-02-08T01:04:41;32.97;;;12.40;;
42260;SDS011;27926;48.062;7.474;2023-02-08T01:07:06;28.97;;;12.03;;
42260;SDS011;27926;48.062;7.474;2023-02-08T01:09:31;29.30;;;12.00;;
42260;SDS011;27926;48.062;7.474;2023-02-08T01:11:55;33.70;;;11.93;;
42260;SDS011;27926;48.062;7.474;2023-02-08T01:14:20;32.30;;;12.00;;
42260;SDS011;27926;48.062;7.474;2023-02-08T01:16:45;30.07;;;12.00;;
42260;SDS011;27926;48.062;7.474;2023-02-08T01:19:09;26.77;;;12.17;;
42260;SDS011;27926;48.062;7.474;2023-02-08T01:21:35;26.03;;;12.13;;
42260;SDS011;27926;48.062;7.474;2023-02-08T01:24:02;32.25;;;12.70;;
42260;SDS011;27926;48.062;7.474;2023-02-08T01:26:28;24.60;;;11.73;;
42260;SDS011;27926;48.062;7.474;2023-02-08T01:28:53;30.58;;;12.40;;
42260;SDS011;27926;48.062;7.474;2023-02-08T01:31:23;28.15;;;12.13;;
42260;SDS011;27926;48.062;7.474;2023-02-08T01:33:52;35.45;;;12.98;;
42260;SDS011;27926;48.062;7.474;2023-02-08T01:36:16;26.43;;;12.17;;
42260;SDS011;27926;48.062;7.474;2023-02-08T01:38:41;28.37;;;12.60;;
42260;SDS011;27926;48.062;7.474;2023-02-08T01:46:48;25.52;;;12.15;;
42260;SDS011;27926;48.062;7.474;2023-02-08T01:49:15;31.05;;;13.73;;
42260;SDS011;27926;48.062;7.474;2023-02-08T01:54:34;26.05;;;11.30;;
42260;SDS011;27926;48.062;7.474;2023-02-08T01:57:03;34.10;;;12.93;;
42260;SDS011;27926;48.062;7.474;2023-02-08T01:59:30;25.90;;;12.57;;
42260;SDS011;27926;48.062;7.474;2023-02-08T02:01:59;28.20;;;13.45;;
42260;SDS011;27926;48.062;7.474;2023-02-08T02:04:24;33.85;;;12.45;;
42260;SDS011;27926;48.062;7.474;2023-02-08T02:09:25;26.50;;;11.18;;
42260;SDS011;27926;48.062;7.474;2023-02-08T02:11:54;28.55;;;12.65;;
42260;SDS011;27926;48.062;7.474;2023-02-08T02:14:20;32.53;;;12.57;;
42260;SDS011;27926;48.062;7.474;2023-02-08T02:16:46;29.40;;;12.23;;
42260;SDS011;27926;48.062;7.474;2023-02-08T02:19:13;26.30;;;12.37;;
42260;SDS011;27926;48.062;7.474;2023-02-08T02:21:50;31.02;;;12.32;;
42260;SDS011;27926;48.062;7.474;2023-02-08T02:24:41;23.48;;;11.32;;
42260;SDS011;27926;48.062;7.474;2023-02-08T02:27:31;29.42;;;12.30;;
42260;SDS011;27926;48.062;7.474;2023-02-08T02:30:06;27.90;;;11.93;;
42260;SDS011;27926;48.062;7.474;2023-02-08T02:35:55;31.13;;;13.63;;
42260;SDS011;27926;48.062;7.474;2023-02-08T02:39:04;29.77;;;12.52;;
42260;SDS011;27926;48.062;7.474;2023-02-08T02:41:55;29.63;;;12.52;;
42260;SDS011;27926;48.062;7.474;2023-02-08T02:47:31;26.08;;;11.88;;
42260;SDS011;27926;48.062;7.474;2023-02-08T02:53:06;27.67;;;11.77;;
42260;SDS011;27926;48.062;7.474;2023-02-08T02:55:39;24.17;;;11.82;;
42260;SDS011;27926;48.062;7.474;2023-02-08T02:58:07;29.77;;;12.38;;
42260;SDS011;27926;48.062;7.474;2023-02-08T03:00:33;27.75;;;12.52;;
42260;SDS011;27926;48.062;7.474;2023-02-08T03:02:58;33.33;;;13.27;;
42260;SDS011;27926;48.062;7.474;2023-02-08T03:05:23;28.07;;;12.97;;
42260;SDS011;27926;48.062;7.474;2023-02-08T03:08:11;26.42;;;12.05;;
42260;SDS011;27926;48.062;7.474;2023-02-08T03:10:55;29.85;;;12.15;;
42260;SDS011;27926;48.062;7.474;2023-02-08T03:16:31;27.65;;;11.43;;
42260;SDS011;27926;48.062;7.474;2023-02-08T03:19:21;32.55;;;13.15;;
42260;SDS011;27926;48.062;7.474;2023-02-08T03:22:11;28.02;;;11.23;;
42260;SDS011;27926;48.062;7.474;2023-02-08T03:32:26;29.00;;;12.25;;
42260;SDS011;27926;48.062;7.474;2023-02-08T03:40:20;35.25;;;14.27;;
42260;SDS011;27926;48.062;7.474;2023-02-08T03:42:48;27.95;;;12.80;;
42260;SDS011;27926;48.062;7.474;2023-02-08T03:45:17;30.02;;;12.60;;
42260;SDS011;27926;48.062;7.474;2023-02-08T03:47:50;37.20;;;14.17;;
42260;SDS011;27926;48.062;7.474;2023-02-08T03:50:20;36.70;;;14.27;;
42260;SDS011;27926;48.062;7.474;2023-02-08T03:52:46;37.92;;;14.15;;
42260;SDS011;27926;48.062;7.474;2023-02-08T03:55:23;33.38;;;14.85;;
42260;SDS011;27926;48.062;7.474;2023-02-08T03:58:02;26.95;;;12.93;;
42260;SDS011;27926;48.062;7.474;2023-02-08T04:00:39;35.30;;;13.63;;
42260;SDS011;27926;48.062;7.474;2023-02-08T04:03:15;39.83;;;14.45;;
42260;SDS011;27926;48.062;7.474;2023-02-08T04:05:43;29.90;;;13.30;;
42260;SDS011;27926;48.062;7.474;2023-02-08T04:08:08;36.58;;;13.40;;
42260;SDS011;27926;48.062;7.474;2023-02-08T04:10:33;34.23;;;13.70;;
42260;SDS011;27926;48.062;7.474;2023-02-08T04:12:57;29.17;;;13.87;;
42260;SDS011;27926;48.062;7.474;2023-02-08T04:15:22;25.20;;;12.57;;
42260;SDS011;27926;48.062;7.474;2023-02-08T04:17:47;31.70;;;13.70;;
42260;SDS011;27926;48.062;7.474;2023-02-08T04:20:11;31.93;;;14.43;;
42260;SDS011;27926;48.062;7.474;2023-02-08T04:22:36;31.53;;;13.90;;
42260;SDS011;27926;48.062;7.474;2023-02-08T04:25:00;29.03;;;13.37;;
42260;SDS011;27926;48.062;7.474;2023-02-08T04:27:25;36.47;;;15.03;;
42260;SDS011;27926;48.062;7.474;2023-02-08T04:29:50;35.40;;;14.20;;
42260;SDS011;27926;48.062;7.474;2023-02-08T04:32:14;30.17;;;13.33;;
42260;SDS011;27926;48.062;7.474;2023-02-08T04:34:39;29.63;;;13.53;;
42260;SDS011;27926;48.062;7.474;2023-02-08T04:37:05;26.73;;;13.48;;
42260;SDS011;27926;48.062;7.474;2023-02-08T04:39:30;29.42;;;13.30;;
42260;SDS011;27926;48.062;7.474;2023-02-08T04:41:55;34.37;;;14.00;;
42260;SDS011;27926;48.062;7.474;2023-02-08T04:44:19;29.47;;;12.60;;
42260;SDS011;27926;48.062;7.474;2023-02-08T04:46:44;27.00;;;12.70;;
42260;SDS011;27926;48.062;7.474;2023-02-08T04:49:08;26.00;;;9.43;;
42260;SDS011;27926;48.062;7.474;2023-02-08T04:51:33;32.07;;;12.97;;
42260;SDS011;27926;48.062;7.474;2023-02-08T04:53:58;29.37;;;13.20;;
42260;SDS011;27926;48.062;7.474;2023-02-08T04:56:22;30.27;;;12.97;;
42260;SDS011;27926;48.062;7.474;2023-02-08T04:58:47;29.77;;;12.80;;
42260;SDS011;27926;48.062;7.474;2023-02-08T05:01:12;36.42;;;13.73;;
42260;SDS011;27926;48.062;7.474;2023-02-08T05:03:39;31.33;;;13.30;;
42260;SDS011;27926;48.062;7.474;2023-02-08T05:06:03;31.27;;;13.17;;
42260;SDS011;27926;48.062;7.474;2023-02-08T05:08:28;27.97;;;13.63;;
42260;SDS011;27926;48.062;7.474;2023-02-08T05:10:53;31.63;;;13.83;;
42260;SDS011;27926;48.062;7.474;2023-02-08T05:13:18;33.93;;;13.50;;
42260;SDS011;27926;48.062;7.474;2023-02-08T05:15:42;33.87;;;14.00;;
42260;SDS011;27926;48.062;7.474;2023-02-08T05:18:07;26.97;;;12.70;;
42260;SDS011;27926;48.062;7.474;2023-02-08T05:20:31;26.77;;;14.03;;
42260;SDS011;27926;48.062;7.474;2023-02-08T05:22:56;32.60;;;14.23;;
42260;SDS011;27926;48.062;7.474;2023-02-08T05:25:21;28.87;;;13.60;;
42260;SDS011;27926;48.062;7.474;2023-02-08T05:27:46;30.03;;;13.20;;
42260;SDS011;27926;48.062;7.474;2023-02-08T05:30:10;42.73;;;13.87;;
42260;SDS011;27926;48.062;7.474;2023-02-08T05:32:35;27.80;;;12.70;;
42260;SDS011;27926;48.062;7.474;2023-02-08T05:35:00;32.30;;;14.07;;
42260;SDS011;27926;48.062;7.474;2023-02-08T05:37:24;35.83;;;14.77;;
42260;SDS011;27926;48.062;7.474;2023-02-08T05:39:49;30.97;;;12.47;;
42260;SDS011;27926;48.062;7.474;2023-02-08T05:42:14;29.60;;;14.07;;
42260;SDS011;27926;48.062;7.474;2023-02-08T05:44:38;34.10;;;12.87;;
42260;SDS011;27926;48.062;7.474;2023-02-08T05:47:03;31.53;;;13.30;;
42260;SDS011;27926;48.062;7.474;2023-02-08T05:49:28;36.87;;;14.80;;
42260;SDS011;27926;48.062;7.474;2023-02-08T05:51:52;28.83;;;13.97;;
42260;SDS011;27926;48.062;7.474;2023-02-08T05:54:17;36.83;;;15.60;;
42260;SDS011;27926;48.062;7.474;2023-02-08T05:56:41;30.20;;;12.63;;
42260;SDS011;27926;48.062;7.474;2023-02-08T05:59:07;32.13;;;10.30;;
42260;SDS011;27926;48.062;7.474;2023-02-08T06:01:32;34.58;;;14.27;;
42260;SDS011;27926;48.062;7.474;2023-02-08T06:03:57;29.13;;;13.07;;
42260;SDS011;27926;48.062;7.474;2023-02-08T06:06:23;32.50;;;13.88;;
42260;SDS011;27926;48.062;7.474;2023-02-08T06:08:47;23.60;;;10.70;;
42260;SDS011;27926;48.062;7.474;2023-02-08T06:11:12;33.77;;;14.03;;
42260;SDS011;27926;48.062;7.474;2023-02-08T06:13:36;40.63;;;13.37;;
42260;SDS011;27926;48.062;7.474;2023-02-08T06:16:02;35.95;;;15.13;;
42260;SDS011;27926;48.062;7.474;2023-02-08T06:18:26;25.93;;;12.73;;
42260;SDS011;27926;48.062;7.474;2023-02-08T06:20:52;30.23;;;13.00;;
42260;SDS011;27926;48.062;7.474;2023-02-08T06:25:41;29.45;;;12.40;;
42260;SDS011;27926;48.062;7.474;2023-02-08T06:28:06;41.80;;;12.93;;
42260;SDS011;27926;48.062;7.474;2023-02-08T06:30:33;30.67;;;12.63;;
42260;SDS011;27926;48.062;7.474;2023-02-08T06:32:58;33.07;;;13.03;;
42260;SDS011;27926;48.062;7.474;2023-02-08T06:35:22;33.83;;;14.10;;
42260;SDS011;27926;48.062;7.474;2023-02-08T06:37:47;32.50;;;13.33;;
42260;SDS011;27926;48.062;7.474;2023-02-08T06:40:11;35.33;;;14.07;;
42260;SDS011;27926;48.062;7.474;2023-02-08T06:42:36;47.97;;;15.03;;
42260;SDS011;27926;48.062;7.474;2023-02-08T06:45:01;47.27;;;16.17;;
42260;SDS011;27926;48.062;7.474;2023-02-08T06:47:25;42.07;;;15.60;;
42260;SDS011;27926;48.062;7.474;2023-02-08T06:49:51;35.63;;;14.30;;
42260;SDS011;27926;48.062;7.474;2023-02-08T06:52:16;29.10;;;13.52;;
42260;SDS011;27926;48.062;7.474;2023-02-08T06:54:41;29.50;;;13.23;;
42260;SDS011;27926;48.062;7.474;2023-02-08T06:57:06;41.63;;;13.77;;
42260;SDS011;27926;48.062;7.474;2023-02-08T06:59:31;35.15;;;13.38;;
42260;SDS011;27926;48.062;7.474;2023-02-08T07:01:55;32.77;;;12.67;;
42260;SDS011;27926;48.062;7.474;2023-02-08T07:04:20;29.00;;;11.73;;
42260;SDS011;27926;48.062;7.474;2023-02-08T07:06:46;29.40;;;12.67;;
42260;SDS011;27926;48.062;7.474;2023-02-08T07:09:12;34.55;;;14.45;;
42260;SDS011;27926;48.062;7.474;2023-02-08T07:11:37;31.80;;;14.73;;
42260;SDS011;27926;48.062;7.474;2023-02-08T07:14:01;35.83;;;13.60;;
42260;SDS011;27926;48.062;7.474;2023-02-08T07:16:26;28.27;;;11.77;;
42260;SDS011;27926;48.062;7.474;2023-02-08T07:18:50;37.73;;;13.57;;
42260;SDS011;27926;48.062;7.474;2023-02-08T07:21:15;34.63;;;13.03;;
42260;SDS011;27926;48.062;7.474;2023-02-08T07:23:40;37.63;;;13.83;;
42260;SDS011;27926;48.062;7.474;2023-02-08T07:26:05;29.98;;;10.68;;
42260;SDS011;27926;48.062;7.474;2023-02-08T07:28:32;26.80;;;10.95;;
42260;SDS011;27926;48.062;7.474;2023-02-08T07:30:57;34.83;;;11.95;;
42260;SDS011;27926;48.062;7.474;2023-02-08T07:33:22;20.43;;;9.77;;
42260;SDS011;27926;48.062;7.474;2023-02-08T07:35:47;28.73;;;12.00;;
42260;SDS011;27926;48.062;7.474;2023-02-08T07:38:12;24.57;;;11.33;;
42260;SDS011;27926;48.062;7.474;2023-02-08T07:40:36;20.27;;;9.70;;
42260;SDS011;27926;48.062;7.474;2023-02-08T07:43:04;22.58;;;10.70;;
42260;SDS011;27926;48.062;7.474;2023-02-08T07:45:29;36.23;;;10.83;;
42260;SDS011;27926;48.062;7.474;2023-02-08T07:47:53;23.23;;;10.97;;
42260;SDS011;27926;48.062;7.474;2023-02-08T07:50:18;23.57;;;11.37;;
42260;SDS011;27926;48.062;7.474;2023-02-08T07:52:43;23.07;;;10.47;;
42260;SDS011;27926;48.062;7.474;2023-02-08T07:55:09;30.90;;;12.73;;
42260;SDS011;27926;48.062;7.474;2023-02-08T07:57:34;28.10;;;12.15;;
42260;SDS011;27926;48.062;7.474;2023-02-08T07:59:59;27.20;;;12.43;;
42260;SDS011;27926;48.062;7.474;2023-02-08T08:02:23;22.63;;;8.70;;
42260;SDS011;27926;48.062;7.474;2023-02-08T08:04:48;30.13;;;12.77;;
42260;SDS011;27926;48.062;7.474;2023-02-08T08:07:12;29.60;;;12.50;;
42260;SDS011;27926;48.062;7.474;2023-02-08T08:09:37;28.97;;;11.80;;
42260;SDS011;27926;48.062;7.474;2023-02-08T08:12:02;33.63;;;12.83;;
42260;SDS011;27926;48.062;7.474;2023-02-08T08:14:27;32.78;;;13.57;;
42260;SDS011;27926;48.062;7.474;2023-02-08T08:16:51;28.00;;;12.03;;
42260;SDS011;27926;48.062;7.474;2023-02-08T08:19:16;34.70;;;13.63;;
42260;SDS011;27926;48.062;7.474;2023-02-08T08:21:40;25.50;;;12.73;;
42260;SDS011;27926;48.062;7.474;2023-02-08T08:24:05;33.80;;;14.00;;
42260;SDS011;27926;48.062;7.474;2023-02-08T08:26:30;26.73;;;12.30;;
42260;SDS011;27926;48.062;7.474;2023-02-08T08:28:54;29.60;;;14.37;;
42260;SDS011;27926;48.062;7.474;2023-02-08T08:31:19;26.87;;;12.23;;
42260;SDS011;27926;48.062;7.474;2023-02-08T08:33:45;42.75;;;12.30;;
42260;SDS011;27926;48.062;7.474;2023-02-08T08:36:10;26.40;;;11.93;;
42260;SDS011;27926;48.062;7.474;2023-02-08T08:38:35;27.20;;;12.73;;
42260;SDS011;27926;48.062;7.474;2023-02-08T08:41:05;27.95;;;12.65;;
42260;SDS011;27926;48.062;7.474;2023-02-08T08:43:31;28.52;;;12.07;;
42260;SDS011;27926;48.062;7.474;2023-02-08T08:45:55;26.23;;;11.47;;
42260;SDS011;27926;48.062;7.474;2023-02-08T08:48:20;23.60;;;11.30;;
42260;SDS011;27926;48.062;7.474;2023-02-08T08:50:44;26.50;;;12.67;;
42260;SDS011;27926;48.062;7.474;2023-02-08T08:53:09;26.47;;;12.57;;
42260;SDS011;27926;48.062;7.474;2023-02-08T08:55:33;27.20;;;12.97;;
42260;SDS011;27926;48.062;7.474;2023-02-08T08:57:58;29.53;;;12.40;;
42260;SDS011;27926;48.062;7.474;2023-02-08T09:00:23;30.50;;;12.63;;
42260;SDS011;27926;48.062;7.474;2023-02-08T09:02:47;27.83;;;11.87;;
42260;SDS011;27926;48.062;7.474;2023-02-08T09:05:12;22.53;;;11.17;;
42260;SDS011;27926;48.062;7.474;2023-02-08T09:07:37;30.23;;;12.30;;
42260;SDS011;27926;48.062;7.474;2023-02-08T09:10:01;29.47;;;11.20;;
42260;SDS011;27926;48.062;7.474;2023-02-08T09:12:27;21.02;;;10.70;;
42260;SDS011;27926;48.062;7.474;2023-02-08T09:14:52;20.02;;;10.65;;
42260;SDS011;27926;48.062;7.474;2023-02-08T09:17:16;34.67;;;12.67;;
42260;SDS011;27926;48.062;7.474;2023-02-08T09:19:41;24.23;;;11.03;;
42260;SDS011;27926;48.062;7.474;2023-02-08T09:22:06;24.47;;;11.60;;
42260;SDS011;27926;48.062;7.474;2023-02-08T09:24:31;30.75;;;13.30;;
42260;SDS011;27926;48.062;7.474;2023-02-08T09:26:55;20.47;;;9.13;;
42260;SDS011;27926;48.062;7.474;2023-02-08T09:29:20;28.37;;;12.17;;
42260;SDS011;27926;48.062;7.474;2023-02-08T09:31:44;34.23;;;13.40;;
42260;SDS011;27926;48.062;7.474;2023-02-08T09:34:09;31.70;;;12.07;;
42260;SDS011;27926;48.062;7.474;2023-02-08T09:36:36;33.73;;;11.50;;
42260;SDS011;27926;48.062;7.474;2023-02-08T09:39:06;24.83;;;11.52;;
42260;SDS011;27926;48.062;7.474;2023-02-08T09:47:13;21.85;;;11.20;;
42260;SDS011;27926;48.062;7.474;2023-02-08T09:49:43;27.52;;;11.30;;
42260;SDS011;27926;48.062;7.474;2023-02-08T09:52:38;31.05;;;11.82;;
42260;SDS011;27926;48.062;7.474;2023-02-08T09:55:50;26.60;;;11.40;;
42260;SDS011;27926;48.062;7.474;2023-02-08T09:58:02;28.88;;;10.98;;
42260;SDS011;27926;48.062;7.474;2023-02-08T10:00:40;29.20;;;12.63;;
42260;SDS011;27926;48.062;7.474;2023-02-08T10:03:22;29.33;;;10.73;;
42260;SDS011;27926;48.062;7.474;2023-02-08T10:05:58;34.67;;;12.35;;
42260;SDS011;27926;48.062;7.474;2023-02-08T10:08:24;27.35;;;10.50;;
42260;SDS011;27926;48.062;7.474;2023-02-08T10:10:55;21.15;;;9.85;;
42260;SDS011;27926;48.062;7.474;2023-02-08T10:19:25;28.33;;;12.50;;
42260;SDS011;27926;48.062;7.474;2023-02-08T10:22:06;27.42;;;11.55;;
42260;SDS011;27926;48.062;7.474;2023-02-08T10:24:42;23.02;;;9.85;;
42260;SDS011;27926;48.062;7.474;2023-02-08T10:27:37;26.35;;;12.48;;
42260;SDS011;27926;48.062;7.474;2023-02-08T10:38:00;22.95;;;10.75;;
42260;SDS011;27926;48.062;7.474;2023-02-08T10:40:37;21.90;;;9.77;;
42260;SDS011;27926;48.062;7.474;2023-02-08T10:51:01;18.95;;;8.52;;
42260;SDS011;27926;48.062;7.474;2023-02-08T10:53:26;23.40;;;10.60;;
42260;SDS011;27926;48.062;7.474;2023-02-08T10:55:51;21.83;;;9.30;;
42260;SDS011;27926;48.062;7.474;2023-02-08T10:58:16;24.87;;;11.77;;
42260;SDS011;27926;48.062;7.474;2023-02-08T11:00:48;24.13;;;9.77;;
42260;SDS011;27926;48.062;7.474;2023-02-08T11:03:17;20.73;;;10.07;;
42260;SDS011;27926;48.062;7.474;2023-02-08T11:05:46;25.88;;;10.13;;
42260;SDS011;27926;48.062;7.474;2023-02-08T11:08:12;25.93;;;10.07;;
42260;SDS011;27926;48.062;7.474;2023-02-08T11:10:44;23.38;;;11.00;;
42260;SDS011;27926;48.062;7.474;2023-02-08T11:15:56;18.63;;;9.02;;
42260;SDS011;27926;48.062;7.474;2023-02-08T11:18:28;26.75;;;10.45;;
42260;SDS011;27926;48.062;7.474;2023-02-08T11:20:56;20.50;;;10.13;;
42260;SDS011;27926;48.062;7.474;2023-02-08T11:23:35;25.25;;;9.80;;
42260;SDS011;27926;48.062;7.474;2023-02-08T11:28:57;23.77;;;10.95;;
42260;SDS011;27926;48.062;7.474;2023-02-08T11:31:24;29.60;;;9.85;;
42260;SDS011;27926;48.062;7.474;2023-02-08T11:34:08;19.05;;;10.10;;
42260;SDS011;27926;48.062;7.474;2023-02-08T11:36:34;19.92;;;10.27;;
42260;SDS011;27926;48.062;7.474;2023-02-08T11:39:14;22.75;;;9.88;;
42260;SDS011;27926;48.062;7.474;2023-02-08T11:41:45;24.55;;;10.30;;
42260;SDS011;27926;48.062;7.474;2023-02-08T11:44:17;28.08;;;11.18;;
42260;SDS011;27926;48.062;7.474;2023-02-08T11:46:54;19.67;;;8.32;;
42260;SDS011;27926;48.062;7.474;2023-02-08T11:49:22;31.83;;;10.40;;
42260;SDS011;27926;48.062;7.474;2023-02-08T11:51:49;21.42;;;9.68;;
42260;SDS011;27926;48.062;7.474;2023-02-08T11:57:11;20.70;;;10.45;;
42260;SDS011;27926;48.062;7.474;2023-02-08T11:59:44;17.67;;;8.98;;
42260;SDS011;27926;48.062;7.474;2023-02-08T12:02:46;22.65;;;9.13;;
42260;SDS011;27926;48.062;7.474;2023-02-08T12:05:09;23.67;;;9.25;;
42260;SDS011;27926;48.062;7.474;2023-02-08T12:13:43;20.30;;;9.38;;
42260;SDS011;27926;48.062;7.474;2023-02-08T12:15:55;16.25;;;8.50;;
42260;SDS011;27926;48.062;7.474;2023-02-08T12:21:42;22.10;;;8.05;;
42260;SDS011;27926;48.062;7.474;2023-02-08T12:24:16;22.23;;;9.50;;
42260;SDS011;27926;48.062;7.474;2023-02-08T12:29:45;17.47;;;8.30;;
42260;SDS011;27926;48.062;7.474;2023-02-08T12:35:40;22.73;;;8.48;;
42260;SDS011;27926;48.062;7.474;2023-02-08T12:55:29;21.23;;;8.07;;
42260;SDS011;27926;48.062;7.474;2023-02-08T12:57:56;18.15;;;7.82;;
42260;SDS011;27926;48.062;7.474;2023-02-08T13:00:47;18.42;;;7.95;;
42260;SDS011;27926;48.062;7.474;2023-02-08T13:05:54;17.23;;;8.27;;
42260;SDS011;27926;48.062;7.474;2023-02-08T13:10:55;16.88;;;8.45;;
42260;SDS011;27926;48.062;7.474;2023-02-08T13:13:25;16.02;;;6.93;;
42260;SDS011;27926;48.062;7.474;2023-02-08T13:16:00;15.02;;;6.70;;
42260;SDS011;27926;48.062;7.474;2023-02-08T13:18:50;15.25;;;7.93;;
42260;SDS011;27926;48.062;7.474;2023-02-08T13:21:23;22.02;;;8.77;;
42260;SDS011;27926;48.062;7.474;2023-02-08T13:23:53;19.60;;;7.90;;
42260;SDS011;27926;48.062;7.474;2023-02-08T13:26:22;18.10;;;7.93;;
42260;SDS011;27926;48.062;7.474;2023-02-08T13:28:51;21.80;;;7.97;;
42260;SDS011;27926;48.062;7.474;2023-02-08T13:31:25;14.27;;;6.85;;
42260;SDS011;27926;48.062;7.474;2023-02-08T13:33:59;18.77;;;8.98;;
42260;SDS011;27926;48.062;7.474;2023-02-08T13:36:36;19.20;;;8.43;;
42260;SDS011;27926;48.062;7.474;2023-02-08T13:39:06;14.05;;;7.40;;
42260;SDS011;27926;48.062;7.474;2023-02-08T13:41:53;16.17;;;7.55;;
42260;SDS011;27926;48.062;7.474;2023-02-08T13:44:19;14.68;;;8.02;;
42260;SDS011;27926;48.062;7.474;2023-02-08T13:46:48;16.63;;;7.38;;
42260;SDS011;27926;48.062;7.474;2023-02-08T13:52:03;14.20;;;6.25;;
42260;SDS011;27926;48.062;7.474;2023-02-08T13:54:28;20.17;;;8.35;;
42260;SDS011;27926;48.062;7.474;2023-02-08T13:56:53;19.63;;;8.38;;
42260;SDS011;27926;48.062;7.474;2023-02-08T14:04:43;18.23;;;7.30;;
42260;SDS011;27926;48.062;7.474;2023-02-08T14:12:02;15.55;;;7.53;;
42260;SDS011;27926;48.062;7.474;2023-02-08T14:14:37;18.65;;;8.75;;
42260;SDS011;27926;48.062;7.474;2023-02-08T14:20:05;19.08;;;8.02;;
42260;SDS011;27926;48.062;7.474;2023-02-08T14:22:39;17.33;;;7.90;;
42260;SDS011;27926;48.062;7.474;2023-02-08T14:25:17;15.60;;;7.13;;
42260;SDS011;27926;48.062;7.474;2023-02-08T14:27:57;14.18;;;6.95;;
42260;SDS011;27926;48.062;7.474;2023-02-08T14:30:41;17.63;;;7.65;;
42260;SDS011;27926;48.062;7.474;2023-02-08T14:33:15;19.67;;;8.38;;
42260;SDS011;27926;48.062;7.474;2023-02-08T14:35:50;22.35;;;8.25;;
42260;SDS011;27926;48.062;7.474;2023-02-08T14:45:42;19.50;;;8.23;;
42260;SDS011;27926;48.062;7.474;2023-02-08T14:50:38;15.90;;;7.60;;
42260;SDS011;27926;48.062;7.474;2023-02-08T14:55:38;21.35;;;8.07;;
42260;SDS011;27926;48.062;7.474;2023-02-08T14:58:12;18.95;;;8.10;;
42260;SDS011;27926;48.062;7.474;2023-02-08T15:00:43;17.90;;;7.18;;
42260;SDS011;27926;48.062;7.474;2023-02-08T15:03:11;15.82;;;7.93;;
42260;SDS011;27926;48.062;7.474;2023-02-08T15:05:43;19.92;;;8.75;;
42260;SDS011;27926;48.062;7.474;2023-02-08T15:08:20;18.90;;;8.60;;
42260;SDS011;27926;48.062;7.474;2023-02-08T15:10:45;19.40;;;8.10;;
42260;SDS011;27926;48.062;7.474;2023-02-08T15:13:16;19.75;;;8.30;;
42260;SDS011;27926;48.062;7.474;2023-02-08T15:15:45;23.83;;;9.45;;
42260;SDS011;27926;48.062;7.474;2023-02-08T15:18:21;14.68;;;7.82;;
42260;SDS011;27926;48.062;7.474;2023-02-08T15:20:57;17.63;;;8.38;;
42260;SDS011;27926;48.062;7.474;2023-02-08T15:23:28;17.60;;;8.05;;
42260;SDS011;27926;48.062;7.474;2023-02-08T15:25:55;23.42;;;8.60;;
42260;SDS011;27926;48.062;7.474;2023-02-08T15:28:22;21.35;;;8.18;;
42260;SDS011;27926;48.062;7.474;2023-02-08T15:30:56;20.00;;;8.43;;
42260;SDS011;27926;48.062;7.474;2023-02-08T15:33:23;20.13;;;8.52;;
42260;SDS011;27926;48.062;7.474;2023-02-08T15:35:58;27.92;;;9.10;;
42260;SDS011;27926;48.062;7.474;2023-02-08T15:38:25;23.42;;;8.93;;
42260;SDS011;27926;48.062;7.474;2023-02-08T15:43:50;18.60;;;8.50;;
42260;SDS011;27926;48.062;7.474;2023-02-08T15:46:44;20.83;;;8.27;;
42260;SDS011;27926;48.062;7.474;2023-02-08T15:49:11;18.58;;;8.63;;
42260;SDS011;27926;48.062;7.474;2023-02-08T15:51:39;20.75;;;9.43;;
42260;SDS011;27926;48.062;7.474;2023-02-08T15:54:04;19.77;;;9.45;;
42260;SDS011;27926;48.062;7.474;2023-02-08T15:56:31;22.17;;;9.85;;
42260;SDS011;27926;48.062;7.474;2023-02-08T15:58:59;24.83;;;9.70;;
42260;SDS011;27926;48.062;7.474;2023-02-08T16:01:26;16.70;;;9.23;;
42260;SDS011;27926;48.062;7.474;2023-02-08T16:03:53;27.33;;;9.85;;
42260;SDS011;27926;48.062;7.474;2023-02-08T16:06:23;20.63;;;9.32;;
42260;SDS011;27926;48.062;7.474;2023-02-08T16:08:56;25.30;;;10.60;;
42260;SDS011;27926;48.062;7.474;2023-02-08T16:11:30;16.83;;;8.73;;
42260;SDS011;27926;48.062;7.474;2023-02-08T16:13:58;18.20;;;9.38;;
42260;SDS011;27926;48.062;7.474;2023-02-08T16:18:59;18.75;;;10.13;;
42260;SDS011;27926;48.062;7.474;2023-02-08T16:21:44;30.20;;;13.98;;
42260;SDS011;27926;48.062;7.474;2023-02-08T16:26:34;29.83;;;15.15;;
42260;SDS011;27926;48.062;7.474;2023-02-08T16:29:15;25.38;;;13.52;;
42260;SDS011;27926;48.062;7.474;2023-02-08T16:31:43;25.42;;;12.40;;
42260;SDS011;27926;48.062;7.474;2023-02-08T16:34:18;21.23;;;10.25;;
42260;SDS011;27926;48.062;7.474;2023-02-08T16:36:47;26.52;;;9.90;;
42260;SDS011;27926;48.062;7.474;2023-02-08T16:44:17;21.48;;;9.45;;
42260;SDS011;27926;48.062;7.474;2023-02-08T16:46:53;22.65;;;10.80;;
42260;SDS011;27926;48.062;7.474;2023-02-08T16:49:18;22.53;;;9.40;;
42260;SDS011;27926;48.062;7.474;2023-02-08T16:51:44;23.60;;;9.73;;
42260;SDS011;27926;48.062;7.474;2023-02-08T16:54:11;23.48;;;10.07;;
42260;SDS011;27926;48.062;7.474;2023-02-08T16:56:42;25.20;;;10.80;;
42260;SDS011;27926;48.062;7.474;2023-02-08T16:59:09;27.20;;;10.18;;
42260;SDS011;27926;48.062;7.474;2023-02-08T17:01:35;29.17;;;10.77;;
42260;SDS011;27926;48.062;7.474;2023-02-08T17:06:28;21.38;;;8.70;;
42260;SDS011;27926;48.062;7.474;2023-02-08T17:08:58;22.08;;;10.18;;
42260;SDS011;27926;48.062;7.474;2023-02-08T17:11:24;25.15;;;10.30;;
42260;SDS011;27926;48.062;7.474;2023-02-08T17:13:49;25.58;;;11.50;;